createdAt,value
2019-06-26T00:02:30.783Z,42.30
2019-06-26T00:05:02.023Z,49.67
2019-06-26T00:07:33.612Z,53.70
2019-06-26T00:10:04.884Z,54.05
2019-06-26T00:12:36.067Z,55.17
2019-06-26T00:15:07.730Z,56.00
2019-06-26T00:17:38.891Z,50.35
2019-06-26T00:20:10.506Z,53.45
2019-06-26T00:22:41.450Z,62.03
2019-06-26T00:25:12.457Z,70.30
2019-06-26T00:27:43.379Z,53.78
2019-06-26T00:30:15.901Z,62.15
2019-06-26T00:32:46.830Z,70.22
2019-06-26T00:35:17.843Z,66.90
2019-06-26T00:37:49.113Z,63.68
2019-06-26T00:40:20.228Z,65.37
2019-06-26T00:42:51.302Z,66.07
2019-06-26T00:45:22.285Z,71.92
2019-06-26T00:47:53.596Z,63.83
2019-06-26T00:50:25.851Z,69.07
2019-06-26T00:52:56.923Z,69.97
2019-06-26T00:55:28.140Z,65.50
2019-06-26T00:57:59.156Z,63.35
2019-06-26T01:00:35.616Z,66.37
2019-06-26T01:03:07.494Z,70.67
2019-06-26T01:05:38.427Z,67.78
2019-06-26T01:08:10.927Z,67.40
2019-06-26T01:10:42.851Z,69.15
2019-06-26T01:13:13.819Z,71.00
2019-06-26T01:15:45.467Z,67.80
2019-06-26T01:18:16.451Z,69.67
2019-06-26T01:20:47.396Z,71.33
2019-06-26T01:23:18.690Z,71.53
2019-06-26T01:25:50.057Z,70.95
2019-06-26T01:28:21.242Z,70.57
2019-06-26T01:30:52.527Z,69.15
2019-06-26T01:33:23.782Z,71.15
2019-06-26T01:35:54.713Z,71.02
2019-06-26T01:38:25.628Z,68.15
2019-06-26T01:40:56.544Z,68.07
2019-06-26T01:43:27.525Z,72.05
2019-06-26T01:45:58.444Z,74.97
2019-06-26T01:48:29.370Z,68.72
2019-06-26T01:51:00.602Z,67.15
2019-06-26T01:53:31.522Z,72.78
2019-06-26T01:56:02.449Z,60.38
2019-06-26T01:58:33.390Z,66.82
2019-06-26T02:01:04.320Z,67.78
2019-06-26T02:03:35.235Z,66.05
2019-06-26T02:06:07.225Z,70.67
2019-06-26T02:08:39.674Z,65.60
2019-06-26T02:11:10.943Z,72.08
2019-06-26T02:13:42.707Z,72.22
2019-06-26T02:16:13.703Z,65.42
2019-06-26T02:18:48.912Z,63.65
2019-06-26T02:21:19.835Z,64.17
2019-06-26T02:23:51.149Z,72.42
2019-06-26T02:26:22.467Z,62.95
2019-06-26T02:28:53.386Z,70.72
2019-06-26T02:31:24.380Z,61.65
2019-06-26T02:33:55.849Z,62.30
2019-06-26T02:36:27.155Z,64.17
2019-06-26T02:38:59.799Z,61.35
2019-06-26T02:41:30.734Z,66.90
2019-06-26T02:44:01.796Z,64.58
2019-06-26T02:46:32.856Z,63.92
2019-06-26T02:49:04.302Z,69.25
2019-06-26T02:51:35.323Z,66.87
2019-06-26T02:54:06.692Z,66.15
2019-06-26T02:56:37.695Z,68.30
2019-06-26T02:59:08.719Z,67.67
2019-06-26T03:01:39.732Z,67.08
2019-06-26T03:04:11.031Z,65.40
2019-06-26T03:06:42.361Z,63.58
2019-06-26T03:09:15.203Z,68.57
2019-06-26T03:11:46.291Z,73.10
2019-06-26T03:14:19.411Z,69.58
2019-06-26T03:16:51.830Z,73.33
2019-06-26T03:19:22.734Z,69.27
2019-06-26T03:21:53.979Z,75.83
2019-06-26T03:24:24.982Z,77.27
2019-06-26T03:26:56.085Z,79.17
2019-06-26T03:29:27.384Z,76.40
2019-06-26T03:31:58.661Z,84.20
2019-06-26T03:34:30.247Z,81.65
2019-06-26T03:37:02.542Z,88.97
2019-06-26T03:39:33.487Z,85.35
2019-06-26T03:42:04.746Z,84.80
2019-06-26T03:44:35.652Z,97.47
2019-06-26T03:47:06.660Z,92.62
2019-06-26T03:49:37.577Z,93.15
2019-06-26T03:52:10.382Z,83.42
2019-06-26T03:54:41.306Z,89.62
2019-06-26T03:57:12.609Z,91.08
2019-06-26T03:59:43.539Z,92.45
2019-06-26T04:02:14.770Z,97.57
2019-06-26T04:04:45.775Z,96.67
2019-06-26T04:07:16.786Z,98.27
2019-06-26T04:09:48.011Z,98.00
2019-06-26T04:12:18.953Z,93.37
2019-06-26T04:14:50.301Z,88.92
2019-06-26T04:17:21.655Z,97.92
2019-06-26T04:19:52.567Z,85.60
2019-06-26T04:22:24.358Z,94.67
2019-06-26T04:24:55.586Z,92.70
2019-06-26T04:27:26.585Z,90.00
2019-06-26T04:29:57.587Z,88.65
2019-06-26T04:32:29.023Z,86.80
2019-06-26T04:35:00.113Z,85.07
2019-06-26T04:37:32.432Z,89.70
2019-06-26T04:40:03.760Z,93.40
2019-06-26T04:42:36.137Z,82.08
2019-06-26T04:45:07.787Z,95.38
2019-06-26T04:47:39.150Z,85.77
2019-06-26T04:50:10.491Z,93.07
2019-06-26T04:52:41.423Z,93.15
2019-06-26T04:55:12.513Z,87.88
2019-06-26T04:57:43.448Z,92.40
2019-06-26T05:00:16.285Z,88.47
2019-06-26T05:02:47.847Z,89.17
2019-06-26T05:05:18.966Z,92.17
2019-06-26T05:07:49.997Z,92.85
2019-06-26T05:10:20.980Z,93.37
2019-06-26T05:12:52.037Z,85.60
2019-06-26T05:15:24.143Z,93.30
2019-06-26T05:17:55.054Z,84.87
2019-06-26T05:20:25.981Z,87.95
2019-06-26T05:22:57.305Z,96.05
2019-06-26T05:25:28.633Z,90.00
2019-06-26T05:27:59.551Z,89.65
2019-06-26T05:30:30.814Z,87.30
2019-06-26T05:33:02.074Z,93.55
2019-06-26T05:35:35.095Z,88.35
2019-06-26T05:38:05.904Z,86.97
2019-06-26T05:40:36.907Z,86.12
2019-06-26T05:43:19.200Z,90.27
2019-06-26T05:45:51.396Z,83.07
2019-06-26T05:48:22.330Z,90.90
2019-06-26T05:50:53.385Z,97.00
2019-06-26T05:53:24.471Z,94.92
2019-06-26T05:55:55.425Z,95.35
2019-06-26T05:58:26.815Z,105.30
2019-06-26T06:00:58.261Z,104.67
2019-06-26T06:03:29.373Z,99.97
2019-06-26T06:06:00.476Z,94.95
2019-06-26T06:08:31.829Z,98.87
2019-06-26T06:11:04.312Z,103.78
2019-06-26T06:13:35.379Z,95.75
2019-06-26T06:16:06.732Z,94.67
2019-06-26T06:18:38.223Z,92.25
2019-06-26T06:21:09.658Z,91.37
2019-06-26T06:23:41.884Z,91.45
2019-06-26T06:26:13.033Z,87.37
2019-06-26T06:28:44.564Z,85.70
2019-06-26T06:31:16.110Z,88.95
2019-06-26T06:33:47.669Z,88.27
2019-06-26T06:36:20.117Z,89.87
2019-06-26T06:38:51.541Z,101.85
2019-06-26T06:41:22.686Z,103.00
2019-06-26T06:43:54.149Z,102.38
2019-06-26T06:46:25.204Z,104.78
2019-06-26T06:48:56.288Z,102.62
2019-06-26T06:51:27.674Z,100.10
2019-06-26T06:53:58.876Z,100.47
2019-06-26T06:56:29.925Z,108.07
2019-06-26T06:59:01.382Z,103.70
2019-06-26T07:01:33.052Z,100.58
2019-06-26T07:04:04.024Z,95.53
2019-06-26T07:06:35.024Z,94.83
2019-06-26T07:09:07.412Z,93.58
2019-06-26T07:11:38.774Z,101.62
2019-06-26T07:14:09.888Z,91.15
2019-06-26T07:16:41.234Z,92.75
2019-06-26T07:19:12.277Z,81.82
2019-06-26T07:21:43.263Z,89.52
2019-06-26T07:24:14.587Z,78.37
2019-06-26T07:26:45.681Z,72.20
2019-06-26T07:29:17.187Z,77.10
2019-06-26T07:31:48.219Z,83.60
2019-06-26T07:34:19.304Z,77.92
2019-06-26T07:36:50.760Z,80.45
2019-06-26T07:39:21.830Z,80.30
2019-06-26T07:41:53.188Z,80.05
2019-06-26T07:44:24.180Z,78.55
2019-06-26T07:46:55.658Z,82.75
2019-06-26T07:49:26.678Z,76.17
2019-06-26T07:51:57.664Z,72.35
2019-06-26T07:54:28.783Z,79.62
2019-06-26T07:56:59.899Z,75.22
2019-06-26T07:59:31.042Z,73.47
2019-06-26T08:02:02.126Z,76.57
2019-06-26T08:04:33.217Z,77.47
2019-06-26T08:07:04.342Z,72.95
2019-06-26T08:09:35.286Z,71.05
2019-06-26T08:12:06.419Z,75.42
2019-06-26T08:14:37.468Z,69.40
2019-06-26T08:17:08.426Z,76.82
2019-06-26T08:19:39.440Z,79.90
2019-06-26T08:22:11.115Z,75.00
2019-06-26T08:24:43.158Z,78.65
2019-06-26T08:27:14.204Z,75.83
2019-06-26T08:29:45.235Z,74.90
2019-06-26T08:32:16.179Z,77.70
2019-06-26T08:34:47.871Z,75.12
2019-06-26T08:37:18.935Z,81.28
2019-06-26T08:39:50.258Z,79.07
2019-06-26T08:42:21.312Z,79.55
2019-06-26T08:44:54.499Z,77.15
2019-06-26T08:47:26.250Z,80.75
2019-06-26T08:49:57.627Z,79.77
2019-06-26T08:52:29.256Z,82.72
2019-06-26T08:55:00.207Z,77.42
2019-06-26T08:57:31.574Z,79.62
2019-06-26T09:00:02.593Z,77.60
2019-06-26T09:02:33.736Z,79.10
2019-06-26T09:05:05.083Z,79.75
2019-06-26T09:07:36.211Z,76.87
2019-06-26T09:10:07.727Z,76.47
2019-06-26T09:12:38.881Z,75.28
2019-06-26T09:15:10.443Z,75.62
2019-06-26T09:17:41.570Z,74.35
2019-06-26T09:20:13.167Z,76.62
2019-06-26T09:22:44.399Z,76.07
2019-06-26T09:25:21.973Z,80.30
2019-06-26T09:27:49.336Z,75.75
2019-06-26T09:30:21.463Z,75.28
2019-06-26T09:32:52.862Z,75.03
2019-06-26T09:35:24.248Z,68.37
2019-06-26T09:37:55.664Z,70.72
2019-06-26T09:40:26.708Z,74.05
2019-06-26T09:42:58.168Z,68.57
2019-06-26T09:45:29.293Z,75.17
2019-06-26T09:48:00.439Z,69.90
2019-06-26T09:50:31.536Z,69.37
2019-06-26T09:53:05.218Z,72.53
2019-06-26T09:55:35.700Z,74.07
2019-06-26T09:58:07.278Z,72.17
2019-06-26T10:00:38.601Z,69.35
2019-06-26T10:03:09.722Z,64.65
2019-06-26T10:05:41.375Z,69.65
2019-06-26T10:08:12.870Z,61.70
2019-06-26T10:10:44.453Z,71.02
2019-06-26T10:13:15.590Z,61.45
2019-06-26T10:15:47.096Z,64.82
2019-06-26T10:18:18.367Z,70.62
2019-06-26T10:20:49.499Z,62.85
2019-06-26T10:23:20.551Z,69.60
2019-06-26T10:25:51.688Z,64.47
2019-06-26T10:28:23.204Z,62.62
2019-06-26T10:30:54.500Z,56.10
2019-06-26T10:33:25.554Z,60.85
2019-06-26T10:35:56.597Z,63.10
2019-06-26T10:38:27.649Z,57.23
2019-06-26T10:40:58.678Z,56.60
2019-06-26T10:43:29.636Z,66.00
2019-06-26T10:46:00.731Z,60.55
2019-06-26T10:48:32.127Z,57.50
2019-06-26T10:51:03.522Z,56.45
2019-06-26T10:53:34.626Z,55.40
2019-06-26T10:56:05.640Z,56.20
2019-06-26T10:58:37.038Z,50.75
2019-06-26T11:01:08.669Z,50.35
2019-06-26T11:03:39.789Z,50.43
2019-06-26T11:06:10.873Z,50.80
2019-06-26T11:08:42.030Z,45.67
2019-06-26T11:11:13.090Z,43.30
2019-06-26T11:13:44.154Z,44.58
2019-06-26T11:16:15.305Z,42.33
2019-06-26T11:18:46.430Z,45.17
2019-06-26T11:21:18.054Z,44.20
2019-06-26T11:23:50.095Z,42.55
2019-06-26T11:26:21.254Z,49.13
2019-06-26T11:28:52.332Z,45.75
2019-06-26T11:31:23.789Z,41.65
2019-06-26T11:33:55.243Z,48.28
2019-06-26T11:36:26.620Z,39.95
2019-06-26T11:38:57.665Z,37.73
2019-06-26T11:41:29.504Z,38.25
2019-06-26T11:44:00.521Z,36.90
2019-06-26T11:46:31.680Z,36.15
2019-06-26T11:49:02.974Z,30.90
2019-06-26T11:51:34.258Z,30.97
2019-06-26T11:54:05.256Z,34.00
2019-06-26T11:56:36.199Z,29.02
2019-06-26T11:59:07.119Z,33.00
2019-06-26T12:01:38.469Z,31.95
2019-06-26T12:04:09.778Z,30.43
2019-06-26T12:06:40.680Z,28.98
2019-06-26T12:09:11.620Z,26.60
2019-06-26T12:11:42.572Z,26.62
2019-06-26T12:14:13.560Z,30.77
2019-06-26T12:16:44.818Z,28.55
2019-06-26T12:19:19.079Z,25.52
2019-06-26T12:21:48.874Z,28.07
2019-06-26T12:24:20.060Z,24.57
2019-06-26T12:26:51.065Z,25.48
2019-06-26T12:29:22.148Z,27.65
2019-06-26T12:31:53.058Z,25.72
2019-06-26T12:34:24.097Z,28.20
2019-06-26T12:36:55.378Z,28.50
2019-06-26T12:39:26.409Z,27.00
2019-06-26T12:41:57.375Z,25.75
2019-06-26T12:44:28.437Z,32.10
2019-06-26T12:46:59.729Z,26.85
2019-06-26T12:49:31.101Z,27.80
2019-06-26T12:52:02.103Z,31.12
2019-06-26T12:54:33.751Z,30.65
2019-06-26T12:57:05.427Z,35.65
2019-06-26T12:59:36.358Z,32.33
2019-06-26T13:02:08.425Z,38.00
2019-06-26T13:04:39.768Z,41.98
2019-06-26T13:07:12.472Z,40.17
2019-06-26T13:09:43.866Z,39.38
2019-06-26T13:12:14.856Z,47.48
2019-06-26T13:14:46.114Z,38.45
2019-06-26T13:17:17.126Z,47.73
2019-06-26T13:19:48.500Z,39.53
2019-06-26T13:22:19.821Z,42.62
2019-06-26T13:24:50.885Z,40.88
2019-06-26T13:27:22.404Z,38.78
2019-06-26T13:29:53.732Z,37.30
2019-06-26T13:32:25.071Z,38.67
2019-06-26T13:34:56.078Z,40.05
2019-06-26T13:37:27.102Z,33.20
2019-06-26T13:39:58.103Z,34.73
2019-06-26T13:42:30.018Z,39.42
2019-06-26T13:45:00.950Z,38.83
2019-06-26T13:47:32.156Z,37.45
2019-06-26T13:50:03.254Z,37.30
2019-06-26T13:52:35.268Z,36.70
2019-06-26T13:55:06.624Z,43.25
2019-06-26T13:57:37.701Z,43.73
2019-06-26T14:00:09.900Z,43.10
2019-06-26T14:02:41.185Z,45.63
2019-06-26T14:05:12.715Z,52.83
2019-06-26T14:07:43.646Z,54.23
2019-06-26T14:10:15.268Z,50.48
2019-06-26T14:12:46.286Z,48.60
2019-06-26T14:15:17.637Z,50.67
2019-06-26T14:17:48.956Z,48.75
2019-06-26T14:20:20.880Z,56.33
2019-06-26T14:22:52.224Z,57.60
2019-06-26T14:25:23.239Z,51.33
2019-06-26T14:27:54.558Z,46.53
2019-06-26T14:30:27.862Z,54.18
2019-06-26T14:32:58.451Z,58.15
2019-06-26T14:35:29.450Z,51.10
2019-06-26T14:38:00.495Z,46.88
2019-06-26T14:40:31.584Z,47.45
2019-06-26T14:43:02.814Z,40.83
2019-06-26T14:45:33.832Z,44.42
2019-06-26T14:48:04.757Z,38.35
2019-06-26T14:50:35.686Z,33.00
2019-06-26T14:53:06.999Z,36.70
2019-06-26T14:55:37.996Z,38.85
2019-06-26T14:58:09.262Z,40.70
2019-06-26T15:00:40.499Z,37.03
2019-06-26T15:03:11.773Z,36.83
2019-06-26T15:05:42.807Z,31.37
2019-06-26T15:08:14.103Z,32.17
2019-06-26T15:10:45.428Z,34.18
2019-06-26T15:13:17.522Z,29.30
2019-06-26T15:15:48.901Z,30.00
2019-06-26T15:18:21.466Z,25.12
2019-06-26T15:20:52.474Z,32.35
2019-06-26T15:23:23.468Z,29.07
2019-06-26T15:25:54.394Z,28.67
2019-06-26T15:28:25.766Z,29.85
2019-06-26T15:30:57.445Z,27.95
2019-06-26T15:33:28.467Z,22.52
2019-06-26T15:35:59.472Z,27.73
2019-06-26T15:38:30.418Z,24.32
2019-06-26T15:41:01.786Z,20.37
2019-06-26T15:43:32.808Z,21.30
2019-06-26T15:46:03.871Z,17.23
2019-06-26T15:48:34.980Z,17.67
2019-06-26T15:51:06.094Z,19.27
2019-06-26T15:53:37.107Z,21.77
2019-06-26T15:56:08.136Z,18.05
2019-06-26T15:58:39.133Z,17.67
2019-06-26T16:01:10.814Z,23.50
2019-06-26T16:03:42.274Z,19.35
2019-06-26T16:06:13.356Z,23.65
2019-06-26T16:08:44.621Z,27.17
2019-06-26T16:11:15.560Z,24.10
2019-06-26T16:13:46.490Z,25.65
2019-06-26T16:16:17.603Z,25.20
2019-06-26T16:18:54.224Z,28.02
2019-06-26T16:21:25.581Z,28.50
2019-06-26T16:23:56.996Z,25.75
2019-06-26T16:26:28.395Z,28.30
2019-06-26T16:28:59.396Z,28.07
2019-06-26T16:31:30.747Z,21.95
2019-06-26T16:34:01.735Z,25.43
2019-06-26T16:36:33.115Z,19.30
2019-06-26T16:39:04.885Z,18.42
2019-06-26T16:41:36.732Z,19.73
2019-06-26T16:44:08.417Z,18.07
2019-06-26T16:46:39.443Z,17.05
2019-06-26T16:49:11.026Z,17.57
2019-06-26T16:51:42.147Z,17.62
2019-06-26T16:54:13.159Z,16.10
2019-06-26T16:56:44.464Z,14.78
2019-06-26T16:59:15.787Z,15.23
2019-06-26T17:01:46.730Z,14.55
2019-06-26T17:04:17.855Z,13.90
2019-06-26T17:06:49.297Z,17.17
2019-06-26T17:09:20.295Z,17.52
2019-06-26T17:11:51.390Z,17.15
2019-06-26T17:14:22.440Z,20.62
2019-06-26T17:16:53.929Z,16.67
2019-06-26T17:19:24.933Z,18.52
2019-06-26T17:21:56.269Z,25.92
2019-06-26T17:24:27.225Z,16.45
2019-06-26T17:26:59.493Z,18.65
2019-06-26T17:29:30.667Z,15.25
2019-06-26T17:32:01.972Z,17.02
2019-06-26T17:34:32.987Z,14.83
2019-06-26T17:37:05.056Z,16.20
2019-06-26T17:39:36.262Z,14.33
2019-06-26T17:42:07.208Z,13.60
2019-06-26T17:44:38.196Z,17.32
2019-06-26T17:47:09.187Z,14.25
2019-06-26T17:49:40.133Z,14.73
2019-06-26T17:52:11.145Z,11.75
2019-06-26T17:54:42.454Z,15.68
2019-06-26T17:57:13.466Z,15.70
2019-06-26T17:59:44.454Z,13.50
2019-06-26T18:02:15.760Z,14.03
2019-06-26T18:04:46.746Z,14.23
2019-06-26T18:07:18.341Z,11.43
2019-06-26T18:09:49.249Z,12.28
2019-06-26T18:12:20.185Z,13.25
2019-06-26T18:14:51.151Z,12.23
2019-06-26T18:17:22.822Z,10.43
2019-06-26T18:19:54.830Z,11.03
2019-06-26T18:22:26.063Z,14.25
2019-06-26T18:24:57.380Z,14.13
2019-06-26T18:27:28.313Z,14.23
2019-06-26T18:29:59.330Z,7.85
2019-06-26T18:32:30.325Z,8.60
2019-06-26T18:35:01.238Z,9.15
2019-06-26T18:37:32.365Z,10.20
2019-06-26T18:40:03.360Z,7.22
2019-06-26T18:42:34.311Z,9.68
2019-06-26T18:45:06.495Z,10.20
2019-06-26T18:47:38.945Z,8.78
2019-06-26T18:50:10.885Z,7.33
2019-06-26T18:52:41.972Z,9.23
2019-06-26T18:55:13.249Z,12.63
2019-06-26T18:57:44.522Z,6.97
2019-06-26T19:00:16.508Z,8.20
2019-06-26T19:02:47.434Z,6.55
2019-06-26T19:05:18.375Z,5.97
2019-06-26T19:07:49.384Z,8.50
2019-06-26T19:10:20.709Z,6.60
2019-06-26T19:12:52.055Z,5.22
2019-06-26T19:15:22.997Z,8.83
2019-06-26T19:17:53.989Z,4.25
2019-06-26T19:20:25.289Z,6.80
2019-06-26T19:22:56.220Z,6.17
2019-06-26T19:25:27.301Z,6.42
2019-06-26T19:27:58.206Z,7.30
2019-06-26T19:30:29.132Z,5.45
2019-06-26T19:33:00.068Z,6.70
2019-06-26T19:35:31.382Z,6.50
2019-06-26T19:38:02.702Z,6.40
2019-06-26T19:40:33.635Z,4.83
2019-06-26T19:43:04.654Z,5.28
2019-06-26T19:45:35.751Z,6.03
2019-06-26T19:48:06.747Z,7.03
2019-06-26T19:50:37.690Z,3.95
2019-06-26T19:53:08.679Z,5.72
2019-06-26T19:55:39.681Z,4.75
2019-06-26T19:58:10.619Z,7.80
2019-06-26T20:00:41.603Z,5.35
2019-06-26T20:03:12.576Z,5.87
2019-06-26T20:05:43.590Z,7.22
2019-06-26T20:08:14.487Z,4.78
2019-06-26T20:10:45.754Z,5.97
2019-06-26T20:13:16.684Z,5.53
2019-06-26T20:15:47.755Z,7.08
2019-06-26T20:18:19.492Z,3.33
2019-06-26T20:20:51.467Z,4.33
2019-06-26T20:23:22.465Z,3.80
2019-06-26T20:25:53.377Z,11.30
2019-06-26T20:28:24.853Z,5.55
2019-06-26T20:30:56.145Z,5.72
2019-06-26T20:33:27.793Z,9.38
2019-06-26T20:35:58.792Z,4.92
2019-06-26T20:38:29.820Z,5.72
2019-06-26T20:41:01.148Z,3.20
2019-06-26T20:43:32.359Z,3.60
2019-06-26T20:46:03.364Z,4.05
2019-06-26T20:48:34.353Z,6.20
2019-06-26T20:51:05.274Z,4.85
2019-06-26T20:53:36.308Z,4.12
2019-06-26T20:56:07.501Z,5.97
2019-06-26T20:58:38.469Z,4.60
2019-06-26T21:01:09.458Z,3.27
2019-06-26T21:03:40.464Z,5.10
2019-06-26T21:06:11.407Z,3.20
2019-06-26T21:08:42.406Z,4.37
2019-06-26T21:11:15.730Z,3.52
2019-06-26T21:13:46.289Z,3.92
2019-06-26T21:16:17.821Z,2.27
2019-06-26T21:18:48.740Z,4.45
2019-06-26T21:21:19.811Z,4.37
2019-06-26T21:23:50.753Z,5.70
2019-06-26T21:26:22.015Z,4.33
2019-06-26T21:28:53.651Z,7.10
2019-06-26T21:31:25.002Z,5.53
2019-06-26T21:33:55.977Z,4.58
2019-06-26T21:36:26.902Z,5.95
2019-06-26T21:38:57.811Z,5.17
2019-06-26T21:41:29.073Z,4.90
2019-06-26T21:44:00.398Z,5.10
2019-06-26T21:46:31.380Z,6.40
2019-06-26T21:49:02.300Z,5.62
2019-06-26T21:51:33.956Z,5.85
2019-06-26T21:54:04.938Z,6.05
2019-06-26T21:56:54.101Z,5.83
2019-06-26T21:59:42.802Z,6.33
2019-06-26T22:02:32.236Z,6.22
2019-06-26T22:05:05.106Z,6.65
2019-06-26T22:07:43.680Z,9.83
2019-06-26T22:10:19.314Z,6.03
2019-06-26T22:12:50.525Z,6.65
2019-06-26T22:15:21.440Z,6.28
2019-06-26T22:17:54.186Z,6.50
2019-06-26T22:20:25.645Z,9.18
2019-06-26T22:22:56.588Z,7.37
2019-06-26T22:25:27.494Z,9.18
2019-06-26T22:28:02.127Z,4.70
2019-06-26T22:30:33.106Z,5.25
2019-06-26T22:33:04.024Z,6.42
2019-06-26T22:35:35.049Z,11.53
2019-06-26T22:38:06.007Z,6.55
2019-06-26T22:40:37.380Z,8.18
2019-06-26T22:43:08.538Z,7.95
2019-06-26T22:45:39.846Z,8.55
2019-06-26T22:48:12.783Z,6.85
2019-06-26T22:50:43.993Z,8.20
2019-06-26T22:53:14.987Z,5.78
2019-06-26T22:55:46.199Z,8.90
2019-06-26T22:58:17.193Z,7.60
2019-06-26T23:00:48.257Z,7.85
2019-06-26T23:03:19.233Z,9.30
2019-06-26T23:05:50.571Z,7.67
2019-06-26T23:08:21.499Z,6.70
2019-06-26T23:10:52.863Z,6.35
2019-06-26T23:13:23.799Z,8.95
2019-06-26T23:15:54.769Z,7.47
2019-06-26T23:18:25.729Z,8.30
2019-06-26T23:20:58.574Z,6.33
2019-06-26T23:23:29.486Z,8.18
2019-06-26T23:26:00.484Z,9.80
2019-06-26T23:28:31.537Z,10.08
2019-06-26T23:31:02.823Z,6.03
2019-06-26T23:33:33.740Z,4.60
2019-06-26T23:36:05.036Z,10.05
2019-06-26T23:38:36.097Z,9.73
2019-06-26T23:41:07.370Z,8.63
2019-06-26T23:43:38.658Z,7.70
2019-06-26T23:46:09.559Z,10.72
2019-06-26T23:48:40.524Z,7.85
2019-06-26T23:51:11.507Z,7.53
2019-06-26T23:53:42.423Z,9.57
2019-06-26T23:56:13.615Z,12.43
2019-06-26T23:58:44.600Z,9.18
